Time;durP1;ratioP1;P1;durP2;ratioP2;P2;SDS_P1;SDS_P2;PMS_P1;PMS_P2;Temp;Humidity;BMP_temperature;BMP_pressure;BME280_temperature;BME280_humidity;BME280_pressure;Samples;Min_cycle;Max_cycle;Signal;HPM_P1;HPM_P2
2023/09/14 03:02:22;;;;;;;;;;;9.50;99.90;;;;;;5205583;22;19924;-80
2023/09/14 03:04:48;;;;;;;;;;;9.50;99.90;;;;;;5076100;28;19920;-80
2023/09/14 03:07:14;;;;;;;;;;;9.50;99.90;;;;;;5076279;28;19924;-79
2023/09/14 03:09:40;;;;;;;;;;;9.50;99.90;;;;;;5077284;28;20045;-80
2023/09/14 03:12:06;;;;;;;;;;;9.50;99.90;;;;;;5075854;28;19924;-80
2023/09/14 03:14:31;;;;;;;;;;;9.50;99.90;;;;;;5076072;28;19920;-81
2023/09/14 03:16:57;;;;;;;;;;;9.50;99.90;;;;;;5075895;28;19924;-79
2023/09/14 03:19:23;;;;;;;;;;;9.50;99.90;;;;;;5076968;28;19920;-80
2023/09/14 03:21:49;;;;;;;;;;;9.40;99.90;;;;;;5075665;28;20007;-80
2023/09/14 03:24:14;;;;;;;;;;;9.40;99.90;;;;;;5075690;28;19946;-80
2023/09/14 03:26:40;;;;;;;;;;;9.40;99.90;;;;;;5075824;28;19920;-79
2023/09/14 03:29:05;;;;;;;;;;;9.30;99.90;;;;;;5075795;28;19965;-80
2023/09/14 03:31:31;;;;;;;;;;;9.30;99.90;;;;;;5075697;28;19968;-79
2023/09/14 03:33:56;;;;;;;;;;;9.30;99.90;;;;;;5059174;28;19981;-82
2023/09/14 03:36:22;;;;;;;;;;;9.30;99.90;;;;;;5075727;28;19924;-81
2023/09/14 03:38:48;;;;;;;;;;;9.30;99.90;;;;;;5075956;28;19920;-79
2023/09/14 03:41:14;;;;;;;;;;;9.20;99.90;;;;;;5093645;28;19947;-81
2023/09/14 03:43:40;;;;;;;;;;;9.20;99.90;;;;;;5075616;28;19946;-80
2023/09/14 03:46:05;;;;;;;;;;;9.20;99.90;;;;;;5075864;28;19920;-79
2023/09/14 03:48:31;;;;;;;;;;;9.20;99.90;;;;;;5076702;28;20337;-80
2023/09/14 03:50:59;;;;;;;;;;;9.10;99.90;;;;;;5079523;28;20333;-80
2023/09/14 03:53:25;;;;;;;;;;;9.10;99.90;;;;;;5062741;28;20378;-79
2023/09/14 03:55:51;;;;;;;;;;;9.10;99.90;;;;;;5078958;28;19924;-79
2023/09/14 03:58:17;;;;;;;;;;;9.10;99.90;;;;;;5079154;28;19927;-79
2023/09/14 04:00:44;;;;;;;;;;;9.10;99.90;;;;;;5078970;28;19928;-79
2023/09/14 04:03:10;;;;;;;;;;;9.20;99.90;;;;;;5079159;28;20002;-79
2023/09/14 04:05:36;;;;;;;;;;;9.10;99.90;;;;;;5062402;28;19967;-79
2023/09/14 04:08:01;;;;;;;;;;;9.00;99.90;;;;;;5078919;28;19920;-80
2023/09/14 04:10:27;;;;;;;;;;;9.00;99.90;;;;;;5078762;28;19960;-81
2023/09/14 04:12:57;;;;;;;;;;;9.00;99.90;;;;;;5078868;28;19920;-81
2023/09/14 04:15:22;;;;;;;;;;;8.90;99.90;;;;;;5079406;28;20028;-82
2023/09/14 04:17:48;;;;;;;;;;;8.90;99.90;;;;;;5078691;28;19986;-79
2023/09/14 04:20:14;;;;;;;;;;;8.90;99.90;;;;;;5096972;28;19924;-80
2023/09/14 04:22:39;;;;;;;;;;;8.90;99.90;;;;;;5078550;28;19946;-81
2023/09/14 04:25:08;;;;;;;;;;;8.90;99.90;;;;;;5078631;28;19920;-79
2023/09/14 04:27:33;;;;;;;;;;;8.90;99.90;;;;;;5078676;28;20011;-80
2023/09/14 04:29:59;;;;;;;;;;;8.90;99.90;;;;;;5078486;28;19974;-81
2023/09/14 04:32:24;;;;;;;;;;;8.90;99.90;;;;;;5078397;28;19920;-81
2023/09/14 04:34:50;;;;;;;;;;;8.90;99.90;;;;;;5078323;28;19930;-81
2023/09/14 04:37:16;;;;;;;;;;;8.90;99.90;;;;;;5078670;28;19926;-82
2023/09/14 04:39:42;;;;;;;;;;;8.80;99.90;;;;;;5078450;28;20444;-79
2023/09/14 04:42:07;;;;;;;;;;;8.80;99.90;;;;;;5078329;28;19963;-79
2023/09/14 04:44:33;;;;;;;;;;;8.80;99.90;;;;;;5078179;28;20331;-80
2023/09/14 04:46:58;;;;;;;;;;;8.80;99.90;;;;;;5061392;28;19920;-82
2023/09/14 04:49:24;;;;;;;;;;;8.70;99.90;;;;;;5078075;28;19946;-81
2023/09/14 04:51:49;;;;;;;;;;;8.70;99.90;;;;;;5078016;28;19920;-80
2023/09/14 04:54:15;;;;;;;;;;;8.70;99.90;;;;;;5078031;28;20328;-82
2023/09/14 04:56:40;;;;;;;;;;;8.70;99.90;;;;;;5077618;28;19924;-81
2023/09/14 04:59:06;;;;;;;;;;;8.70;99.90;;;;;;5078186;28;19920;-82
2023/09/14 05:01:32;;;;;;;;;;;8.70;99.90;;;;;;5077760;28;20370;-82
2023/09/14 05:03:57;;;;;;;;;;;8.70;99.90;;;;;;5096165;28;19920;-80
2023/09/14 05:06:24;;;;;;;;;;;8.70;99.90;;;;;;5079480;28;19959;-82
2023/09/14 05:08:49;;;;;;;;;;;8.60;99.90;;;;;;5077787;28;19920;-80
2023/09/14 05:11:15;;;;;;;;;;;8.60;99.90;;;;;;5078050;28;20274;-81
2023/09/14 05:13:40;;;;;;;;;;;8.60;99.90;;;;;;5077767;28;20380;-79
2023/09/14 05:16:06;;;;;;;;;;;8.60;99.90;;;;;;5077128;28;19924;-79
2023/09/14 05:18:31;;;;;;;;;;;8.60;99.90;;;;;;5077526;28;19927;-80
2023/09/14 05:20:57;;;;;;;;;;;8.60;99.90;;;;;;5077472;28;19920;-82
2023/09/14 05:23:22;;;;;;;;;;;8.60;99.90;;;;;;5077548;28;19971;-80
2023/09/14 05:25:48;;;;;;;;;;;8.60;99.90;;;;;;5077753;28;19920;-80
2023/09/14 05:28:14;;;;;;;;;;;8.60;99.90;;;;;;5060659;28;20364;-82
2023/09/14 05:30:40;;;;;;;;;;;8.60;99.90;;;;;;5061402;28;20275;-80
2023/09/14 05:33:07;;;;;;;;;;;8.60;99.90;;;;;;5060676;28;19927;-81
2023/09/14 05:35:32;;;;;;;;;;;8.60;99.90;;;;;;5077448;28;19924;-80
2023/09/14 05:37:58;;;;;;;;;;;8.60;99.90;;;;;;5095461;28;19920;-81
2023/09/14 05:40:23;;;;;;;;;;;8.70;99.90;;;;;;5060620;28;19968;-80
2023/09/14 05:42:49;;;;;;;;;;;8.60;99.90;;;;;;5077392;28;20264;-81
2023/09/14 05:45:16;;;;;;;;;;;8.60;99.90;;;;;;5077573;28;20327;-81
2023/09/14 05:47:41;;;;;;;;;;;8.70;99.90;;;;;;5061160;28;19920;-81
2023/09/14 05:50:08;;;;;;;;;;;8.70;99.90;;;;;;5077869;28;20408;-79
2023/09/14 05:52:34;;;;;;;;;;;8.70;99.90;;;;;;5095374;28;19924;-81
2023/09/14 05:55:00;;;;;;;;;;;8.70;99.90;;;;;;5076622;28;19926;-79
2023/09/14 05:57:27;;;;;;;;;;;8.70;99.90;;;;;;5094304;28;20436;-82
2023/09/14 05:59:53;;;;;;;;;;;8.70;99.90;;;;;;5076844;28;19927;-80
2023/09/14 06:02:19;;;;;;;;;;;8.80;99.90;;;;;;5076824;28;19943;-79
2023/09/14 06:04:47;;;;;;;;;;;8.80;99.90;;;;;;5076846;28;19924;-80
2023/09/14 06:07:12;;;;;;;;;;;8.80;99.90;;;;;;5060492;28;20264;-79
2023/09/14 06:09:38;;;;;;;;;;;8.80;99.90;;;;;;5077753;28;19970;-80
2023/09/14 06:12:04;;;;;;;;;;;8.90;99.90;;;;;;5093958;28;19927;-78
2023/09/14 06:14:29;;;;;;;;;;;9.00;99.90;;;;;;5076620;28;19924;-81
2023/09/14 06:16:55;;;;;;;;;;;9.00;99.90;;;;;;5094882;28;19924;-80
2023/09/14 06:19:20;;;;;;;;;;;9.10;99.90;;;;;;5094328;28;19931;-79
2023/09/14 06:21:46;;;;;;;;;;;9.10;99.90;;;;;;5059544;28;19932;-81
2023/09/14 06:24:11;;;;;;;;;;;9.20;99.90;;;;;;5076037;28;19920;-79
2023/09/14 06:26:38;;;;;;;;;;;9.20;99.90;;;;;;5076051;28;19920;-80
2023/09/14 06:29:03;;;;;;;;;;;9.20;99.90;;;;;;5076441;28;20287;-81
2023/09/14 06:31:29;;;;;;;;;;;9.30;99.90;;;;;;5076027;28;19920;-82
2023/09/14 06:33:54;;;;;;;;;;;9.40;99.90;;;;;;5059385;28;20302;-81
2023/09/14 06:36:20;;;;;;;;;;;9.50;99.90;;;;;;5075909;28;19930;-81
2023/09/14 06:38:46;;;;;;;;;;;9.60;99.90;;;;;;5077623;28;19920;-80
2023/09/14 06:41:12;;;;;;;;;;;9.60;99.90;;;;;;5076169;28;19970;-79
2023/09/14 06:43:39;;;;;;;;;;;9.70;99.90;;;;;;5076294;28;19970;-80
2023/09/14 06:46:04;;;;;;;;;;;9.80;99.90;;;;;;5076400;28;20336;-80
2023/09/14 06:48:30;;;;;;;;;;;9.90;99.90;;;;;;5076370;28;19969;-80
2023/09/14 06:50:56;;;;;;;;;;;9.90;99.90;;;;;;5075898;28;20386;-80
2023/09/14 06:53:22;;;;;;;;;;;9.90;99.90;;;;;;5075873;28;19927;-81
2023/09/14 06:55:47;;;;;;;;;;;10.00;99.90;;;;;;5075933;28;19924;-82
2023/09/14 06:58:14;;;;;;;;;;;10.10;99.90;;;;;;5059104;28;19926;-80
2023/09/14 07:00:40;;;;;;;;;;;10.10;99.90;;;;;;5094230;28;19920;-80
2023/09/14 07:03:06;;;;;;;;;;;10.20;99.90;;;;;;5094431;28;20023;-80
2023/09/14 07:05:34;;;;;;;;;;;10.30;99.90;;;;;;5093999;28;19920;-79
2023/09/14 07:08:00;;;;;;;;;;;10.40;99.90;;;;;;5093823;28;19920;-80
2023/09/14 07:10:26;;;;;;;;;;;10.40;99.90;;;;;;5093837;28;19920;-81
2023/09/14 07:12:51;;;;;;;;;;;10.50;99.90;;;;;;5093941;28;19924;-80
2023/09/14 07:15:17;;;;;;;;;;;10.60;99.90;;;;;;5075595;28;20070;-79
2023/09/14 07:17:43;;;;;;;;;;;10.80;99.90;;;;;;5075770;28;19927;-81
2023/09/14 07:20:09;;;;;;;;;;;10.90;99.90;;;;;;5076136;28;19971;-80
2023/09/14 07:22:35;;;;;;;;;;;11.00;99.90;;;;;;5059114;28;20016;-81
2023/09/14 07:25:01;;;;;;;;;;;11.10;99.90;;;;;;5079354;28;19993;-79
2023/09/14 07:27:27;;;;;;;;;;;11.30;99.90;;;;;;5079685;28;20011;-79
2023/09/14 07:29:53;;;;;;;;;;;11.30;99.90;;;;;;5079374;28;20011;-80
2023/09/14 07:32:19;;;;;;;;;;;11.40;99.90;;;;;;5079311;28;19982;-80
2023/09/14 07:34:44;;;;;;;;;;;11.60;99.90;;;;;;5097423;28;19924;-80
2023/09/14 07:37:10;;;;;;;;;;;11.70;99.90;;;;;;5079188;28;19931;-80
2023/09/14 07:39:35;;;;;;;;;;;11.80;99.90;;;;;;5097587;28;19974;-81
2023/09/14 07:42:01;;;;;;;;;;;12.00;99.90;;;;;;5079064;28;20424;-80
2023/09/14 07:44:27;;;;;;;;;;;12.10;99.90;;;;;;5079277;28;19927;-81
2023/09/14 07:46:53;;;;;;;;;;;12.20;99.90;;;;;;5079046;28;19919;-79
2023/09/14 07:49:18;;;;;;;;;;;12.30;99.90;;;;;;5097210;28;19920;-80
2023/09/14 07:51:44;;;;;;;;;;;12.50;99.90;;;;;;5078957;28;20011;-79
2023/09/14 07:54:09;;;;;;;;;;;12.60;99.90;;;;;;5078963;28;19971;-80
2023/09/14 07:56:35;;;;;;;;;;;12.80;99.90;;;;;;5097154;28;19924;-81
2023/09/14 07:59:01;;;;;;;;;;;12.90;99.90;;;;;;5097106;28;20287;-80
2023/09/14 08:01:26;;;;;;;;;;;13.00;99.90;;;;;;5079127;28;19949;-80
2023/09/14 08:03:52;;;;;;;;;;;13.10;99.90;;;;;;5061926;28;20376;-81
2023/09/14 08:06:19;;;;;;;;;;;13.30;99.90;;;;;;5096923;28;19985;-81
2023/09/14 08:08:45;;;;;;;;;;;13.40;99.90;;;;;;5096846;28;19950;-81
2023/09/14 08:11:11;;;;;;;;;;;13.50;99.90;;;;;;5078539;28;20364;-80
2023/09/14 08:13:36;;;;;;;;;;;13.60;99.90;;;;;;5078648;28;19920;-82
2023/09/14 08:16:03;;;;;;;;;;;13.70;99.90;;;;;;5078724;28;19924;-80
2023/09/14 08:18:29;;;;;;;;;;;13.80;99.90;;;;;;5078507;28;19920;-83
2023/09/14 08:20:55;;;;;;;;;;;13.90;99.90;;;;;;5078210;28;19924;-83
2023/09/14 08:23:20;;;;;;;;;;;14.00;99.90;;;;;;5078228;28;19924;-79
2023/09/14 08:25:46;;;;;;;;;;;14.00;99.90;;;;;;5078145;28;19920;-78
2023/09/14 08:28:13;;;;;;;;;;;14.10;99.90;;;;;;5096286;28;20006;-81
2023/09/14 08:30:39;;;;;;;;;;;14.20;99.90;;;;;;5096629;28;19927;-82
2023/09/14 08:33:05;;;;;;;;;;;14.30;99.90;;;;;;5097308;28;19924;-80
2023/09/14 08:35:32;;;;;;;;;;;14.40;99.90;;;;;;5096741;28;19992;-79
2023/09/14 08:37:58;;;;;;;;;;;14.50;99.90;;;;;;5078788;28;19920;-81
2023/09/14 08:40:24;;;;;;;;;;;14.50;99.90;;;;;;5096278;28;20393;-81
2023/09/14 08:42:51;;;;;;;;;;;14.70;99.90;;;;;;5078719;28;20015;-78
2023/09/14 08:45:24;;;;;;;;;;;14.80;99.90;;;;;;5096621;28;20260;-81
2023/09/14 08:47:50;;;;;;;;;;;14.90;99.90;;;;;;5077782;28;19969;-81
2023/09/14 08:50:21;;;;;;;;;;;15.10;99.90;;;;;;5095764;28;20339;-80
2023/09/14 08:52:46;;;;;;;;;;;15.20;99.90;;;;;;5077687;28;19966;-80
2023/09/14 08:55:12;;;;;;;;;;;15.30;99.90;;;;;;5077758;28;20321;-81
2023/09/14 08:57:41;;;;;;;;;;;15.40;99.90;;;;;;5061249;28;19920;-78
2023/09/14 09:00:17;;;;;;;;;;;15.40;99.90;;;;;;5096014;28;20379;-81
2023/09/14 09:02:53;;;;;;;;;;;15.50;99.90;;;;;;5078011;28;19926;-81
2023/09/14 09:05:19;;;;;;;;;;;15.60;99.90;;;;;;5060861;28;20007;-80
2023/09/14 09:07:50;;;;;;;;;;;15.80;99.90;;;;;;5080086;28;19931;-79
2023/09/14 09:10:16;;;;;;;;;;;15.90;99.90;;;;;;5096031;28;19924;-79
2023/09/14 09:12:42;;;;;;;;;;;16.00;99.90;;;;;;5077496;28;19986;-80
2023/09/14 09:15:09;;;;;;;;;;;16.10;99.90;;;;;;5095633;28;19920;-82
2023/09/14 09:17:41;;;;;;;;;;;16.20;99.90;;;;;;5077638;28;19970;-81
2023/09/14 09:20:14;;;;;;;;;;;16.20;99.90;;;;;;5077830;28;19980;-78
2023/09/14 09:22:46;;;;;;;;;;;16.40;99.90;;;;;;5095155;28;19920;-80
2023/09/14 09:25:12;;;;;;;;;;;16.40;99.90;;;;;;5078527;28;19920;-79
2023/09/14 09:27:40;;;;;;;;;;;16.50;99.90;;;;;;5077417;28;19920;-81
2023/09/14 09:30:08;;;;;;;;;;;16.60;99.90;;;;;;5095223;28;19920;-81
2023/09/14 09:32:35;;;;;;;;;;;16.60;99.90;;;;;;5076964;28;20383;-79
2023/09/14 09:35:21;;;;;;;;;;;16.70;99.90;;;;;;5060126;28;20019;-81
2023/09/14 09:37:47;;;;;;;;;;;16.70;99.90;;;;;;5076192;28;19986;-82
2023/09/14 09:40:14;;;;;;;;;;;16.80;99.90;;;;;;5077445;28;19920;-81
2023/09/14 09:42:40;;;;;;;;;;;16.80;99.90;;;;;;5095479;28;20012;-80
2023/09/14 09:45:07;;;;;;;;;;;17.00;99.90;;;;;;5077304;28;19927;-80
2023/09/14 09:47:33;;;;;;;;;;;17.00;99.90;;;;;;5077297;28;19926;-81
2023/09/14 09:49:59;;;;;;;;;;;17.20;99.90;;;;;;5095010;28;20283;-79
2023/09/14 09:52:25;;;;;;;;;;;17.20;99.90;;;;;;5077559;28;19924;-79
2023/09/14 09:54:51;;;;;;;;;;;17.30;99.90;;;;;;5076856;28;19942;-81
2023/09/14 09:57:18;;;;;;;;;;;17.30;99.90;;;;;;5076760;28;19928;-82
2023/09/14 09:59:47;;;;;;;;;;;17.40;99.90;;;;;;5077093;28;19924;-81
2023/09/14 10:02:13;;;;;;;;;;;17.50;99.90;;;;;;5083016;28;20356;-80
2023/09/14 10:04:38;;;;;;;;;;;17.60;99.90;;;;;;5079244;28;19927;-80
2023/09/14 10:07:06;;;;;;;;;;;17.60;99.90;;;;;;5078268;28;19924;-82
2023/09/14 10:09:34;;;;;;;;;;;17.60;99.90;;;;;;5060841;28;19920;-79
2023/09/14 10:12:01;;;;;;;;;;;17.70;99.90;;;;;;5076983;28;20283;-81
2023/09/14 10:14:27;;;;;;;;;;;17.80;99.90;;;;;;5077095;28;20292;-82
2023/09/14 10:16:54;;;;;;;;;;;17.80;99.90;;;;;;5077011;28;19924;-83
2023/09/14 10:19:20;;;;;;;;;;;17.90;99.90;;;;;;5076781;28;19927;-80
2023/09/14 10:21:46;;;;;;;;;;;18.00;99.90;;;;;;5076824;28;19920;-80
2023/09/14 10:24:12;;;;;;;;;;;18.00;99.90;;;;;;5060161;28;19920;-80
2023/09/14 10:26:38;;;;;;;;;;;18.10;99.90;;;;;;5060428;28;20399;-82
2023/09/14 10:29:07;;;;;;;;;;;18.20;99.90;;;;;;5076523;28;20314;-80
2023/09/14 10:31:34;;;;;;;;;;;18.30;99.90;;;;;;5076324;28;19921;-82
2023/09/14 10:34:00;;;;;;;;;;;18.30;99.90;;;;;;5077333;28;20353;-83
2023/09/14 10:36:30;;;;;;;;;;;18.30;99.90;;;;;;5076219;28;19924;-79
2023/09/14 10:38:57;;;;;;;;;;;18.30;99.90;;;;;;5076395;28;20018;-80
2023/09/14 10:41:22;;;;;;;;;;;18.30;99.90;;;;;;5076002;28;20016;-80
2023/09/14 10:43:49;;;;;;;;;;;18.50;99.90;;;;;;5094308;28;19974;-83
2023/09/14 10:46:17;;;;;;;;;;;18.50;99.90;;;;;;5076163;28;19931;-81
2023/09/14 10:48:43;;;;;;;;;;;18.50;99.90;;;;;;5076043;28;19920;-81
2023/09/14 10:51:09;;;;;;;;;;;18.60;99.90;;;;;;5094070;28;20371;-82
2023/09/14 10:53:35;;;;;;;;;;;18.60;99.90;;;;;;5076116;28;19924;-80
2023/09/14 10:56:01;;;;;;;;;;;18.70;99.90;;;;;;5075828;28;19931;-81
2023/09/14 10:58:38;;;;;;;;;;;18.60;99.90;;;;;;5063297;28;19927;-79
2023/09/14 11:01:08;;;;;;;;;;;18.40;99.90;;;;;;5082323;28;19920;-80
2023/09/14 11:03:54;;;;;;;;;;;18.30;99.90;;;;;;5082605;28;19924;-82
2023/09/14 11:06:38;;;;;;;;;;;18.50;99.90;;;;;;5082207;28;19920;-79
2023/09/14 11:09:05;;;;;;;;;;;18.80;99.90;;;;;;5082393;28;20079;-81
2023/09/14 11:11:38;;;;;;;;;;;18.90;99.90;;;;;;5066028;28;19985;-81
2023/09/14 11:14:07;;;;;;;;;;;19.00;99.90;;;;;;5082581;28;20309;-83
2023/09/14 11:16:53;;;;;;;;;;;19.10;99.90;;;;;;5082381;28;19924;-79
2023/09/14 11:19:34;;;;;;;;;;;19.00;99.90;;;;;;5082161;28;19920;-81
2023/09/14 11:22:04;;;;;;;;;;;19.00;99.90;;;;;;5082311;28;19920;-79
2023/09/14 11:24:34;;;;;;;;;;;19.20;99.90;;;;;;5082517;28;19975;-82
2023/09/14 11:26:59;;;;;;;;;;;19.20;99.90;;;;;;5101139;28;19999;-81
2023/09/14 11:29:28;;;;;;;;;;;19.20;99.90;;;;;;5082263;28;20032;-82
2023/09/14 11:32:01;;;;;;;;;;;19.20;99.90;;;;;;5082226;28;19950;-80
2023/09/14 11:34:29;;;;;;;;;;;19.30;99.90;;;;;;5082741;28;20007;-79
2023/09/14 11:36:57;;;;;;;;;;;19.40;99.90;;;;;;5082167;28;20351;-82
2023/09/14 11:39:22;;;;;;;;;;;19.50;99.90;;;;;;5082534;28;20361;-78
2023/09/14 11:41:48;;;;;;;;;;;19.50;99.90;;;;;;5082299;28;19967;-79
2023/09/14 11:44:13;;;;;;;;;;;19.40;99.90;;;;;;5082452;28;19963;-80
2023/09/14 11:46:39;;;;;;;;;;;19.10;99.90;;;;;;5082215;28;19920;-81
2023/09/14 11:49:05;;;;;;;;;;;18.90;99.90;;;;;;5082096;28;20357;-80
2023/09/14 11:51:31;;;;;;;;;;;19.10;99.90;;;;;;5082911;28;19924;-82
2023/09/14 11:53:59;;;;;;;;;;;19.30;99.90;;;;;;5065974;28;19927;-81
2023/09/14 11:56:30;;;;;;;;;;;19.40;99.90;;;;;;5100211;28;20019;-79
2023/09/14 11:58:58;;;;;;;;;;;19.60;99.90;;;;;;5082036;28;20375;-80
2023/09/14 12:01:25;;;;;;;;;;;19.70;99.90;;;;;;5082584;28;19970;-81
2023/09/14 12:03:51;;;;;;;;;;;19.50;99.90;;;;;;5100192;28;19920;-79
2023/09/14 12:06:17;;;;;;;;;;;19.40;99.90;;;;;;5100472;28;19969;-81
2023/09/14 12:08:48;;;;;;;;;;;19.30;99.90;;;;;;5081202;28;20291;-79
2023/09/14 12:11:14;;;;;;;;;;;19.30;99.90;;;;;;5078438;28;19927;-82
2023/09/14 12:13:50;;;;;;;;;;;19.30;99.90;;;;;;5079201;28;19928;-80
2023/09/14 12:16:21;;;;;;;;;;;19.30;99.90;;;;;;5079363;28;19924;-83
2023/09/14 12:18:47;;;;;;;;;;;19.20;99.90;;;;;;5079084;28;19920;-82
2023/09/14 12:21:13;;;;;;;;;;;19.40;99.90;;;;;;5079167;28;19926;-81
2023/09/14 12:23:39;;;;;;;;;;;19.60;99.90;;;;;;5062363;28;20298;-81
2023/09/14 12:26:06;;;;;;;;;;;19.70;99.90;;;;;;5062905;28;19924;-79
2023/09/14 12:28:32;;;;;;;;;;;19.70;99.90;;;;;;5079864;28;19920;-81
2023/09/14 12:30:58;;;;;;;;;;;19.50;99.90;;;;;;5064117;28;19920;-81
2023/09/14 12:33:24;;;;;;;;;;;19.40;99.90;;;;;;5099976;28;20268;-80
2023/09/14 12:35:50;;;;;;;;;;;19.20;99.90;;;;;;5081633;28;19924;-78
2023/09/14 12:38:16;;;;;;;;;;;19.10;99.90;;;;;;5101331;28;19921;-81
2023/09/14 12:40:42;;;;;;;;;;;19.20;99.90;;;;;;5063805;28;19920;-78
2023/09/14 12:43:08;;;;;;;;;;;19.40;99.90;;;;;;5078796;28;19920;-82
2023/09/14 12:45:33;;;;;;;;;;;19.70;99.90;;;;;;5079515;28;20318;-81
2023/09/14 12:48:04;;;;;;;;;;;19.90;99.90;;;;;;5061919;28;20034;-79
2023/09/14 12:50:31;;;;;;;;;;;20.10;99.90;;;;;;5078690;28;19943;-82
2023/09/14 12:52:57;;;;;;;;;;;20.00;99.90;;;;;;5096708;28;20290;-82
2023/09/14 12:55:23;;;;;;;;;;;19.90;99.90;;;;;;5078083;28;20387;-79
2023/09/14 12:57:50;;;;;;;;;;;20.00;99.90;;;;;;5096165;28;19946;-80
2023/09/14 13:00:17;;;;;;;;;;;20.00;99.90;;;;;;5079123;28;19919;-75
2023/09/14 13:02:49;;;;;;;;;;;19.90;99.90;;;;;;5078179;28;19920;-82
2023/09/14 13:05:15;;;;;;;;;;;19.90;99.90;;;;;;5077803;28;19931;-79
2023/09/14 13:07:46;;;;;;;;;;;19.90;99.90;;;;;;5078072;28;19926;-80
2023/09/14 13:10:13;;;;;;;;;;;20.00;99.90;;;;;;5061475;28;19965;-78
2023/09/14 13:12:42;;;;;;;;;;;20.10;99.90;;;;;;5096382;28;19920;-79
2023/09/14 13:15:10;;;;;;;;;;;20.20;99.90;;;;;;5061380;28;19920;-82
2023/09/14 13:17:36;;;;;;;;;;;20.40;99.90;;;;;;5077664;28;20023;-79
2023/09/14 13:20:09;;;;;;;;;;;20.50;99.90;;;;;;5077451;28;20018;-82
2023/09/14 13:22:35;;;;;;;;;;;20.60;99.90;;;;;;5076721;28;19947;-81
2023/09/14 13:25:00;;;;;;;;;;;20.40;99.90;;;;;;5077594;28;20360;-81
2023/09/14 13:27:30;;;;;;;;;;;20.30;99.90;;;;;;5060799;28;20337;-82
2023/09/14 13:29:55;;;;;;;;;;;20.20;99.90;;;;;;5077302;28;19920;-80
2023/09/14 13:32:21;;;;;;;;;;;20.00;99.90;;;;;;5077432;28;19920;-82
2023/09/14 13:34:46;;;;;;;;;;;20.10;99.90;;;;;;5077175;28;20014;-78
2023/09/14 13:37:12;;;;;;;;;;;20.20;99.90;;;;;;5077099;28;19924;-79
2023/09/14 13:39:38;;;;;;;;;;;20.30;99.90;;;;;;5077164;28;19920;-81
2023/09/14 13:42:03;;;;;;;;;;;20.30;99.90;;;;;;5076880;28;19920;-80
2023/09/14 13:44:29;;;;;;;;;;;20.30;99.90;;;;;;5060492;28;19927;-79
2023/09/14 13:46:54;;;;;;;;;;;20.20;99.90;;;;;;5077296;28;19923;-82
2023/09/14 13:49:20;;;;;;;;;;;20.30;99.90;;;;;;5077087;28;20007;-81
2023/09/14 13:51:45;;;;;;;;;;;20.40;99.90;;;;;;5060127;28;19978;-80
2023/09/14 13:54:11;;;;;;;;;;;20.50;99.90;;;;;;5077331;28;20343;-80
2023/09/14 13:56:36;;;;;;;;;;;20.60;99.90;;;;;;5077165;28;19947;-81
2023/09/14 13:59:02;;;;;;;;;;;20.60;99.90;;;;;;5076593;28;20295;-84
2023/09/14 14:01:27;;;;;;;;;;;20.50;99.90;;;;;;5076554;28;19927;-83
2023/09/14 14:03:53;;;;;;;;;;;20.50;99.90;;;;;;5076685;28;19920;-80
2023/09/14 14:06:19;;;;;;;;;;;20.60;99.90;;;;;;5076543;28;19941;-80
2023/09/14 14:08:44;;;;;;;;;;;20.70;99.90;;;;;;5076716;28;19924;-82
2023/09/14 14:11:10;;;;;;;;;;;20.80;99.90;;;;;;5076560;28;19943;-80
2023/09/14 14:13:35;;;;;;;;;;;20.90;99.90;;;;;;5095242;28;20098;-82
2023/09/14 14:16:02;;;;;;;;;;;20.80;99.90;;;;;;5076423;28;20406;-83
2023/09/14 14:18:28;;;;;;;;;;;20.80;99.90;;;;;;5076348;28;19920;-80
2023/09/14 14:20:54;;;;;;;;;;;20.60;99.90;;;;;;5076534;28;19920;-80
2023/09/14 14:23:19;;;;;;;;;;;20.50;99.90;;;;;;5076326;28;19920;-83
2023/09/14 14:25:45;;;;;;;;;;;20.40;99.90;;;;;;5076517;28;19920;-84
2023/09/14 14:28:10;;;;;;;;;;;20.40;99.90;;;;;;5076482;28;19970;-82
2023/09/14 14:30:36;;;;;;;;;;;20.60;99.90;;;;;;5076474;28;19927;-83
2023/09/14 14:33:02;;;;;;;;;;;20.70;99.90;;;;;;5077401;28;19920;-80
2023/09/14 14:35:28;;;;;;;;;;;20.70;99.90;;;;;;5077175;28;20375;-83
2023/09/14 14:37:53;;;;;;;;;;;20.80;99.90;;;;;;5059718;28;20021;-81
2023/09/14 14:40:19;;;;;;;;;;;20.80;99.90;;;;;;5076223;28;19928;-79
2023/09/14 14:42:44;;;;;;;;;;;20.80;99.90;;;;;;5094503;28;19924;-82
2023/09/14 14:45:10;;;;;;;;;;;20.90;99.90;;;;;;5076205;28;19927;-82
2023/09/14 14:47:36;;;;;;;;;;;20.90;99.90;;;;;;5093945;28;19931;-81
2023/09/14 14:50:01;;;;;;;;;;;20.90;99.90;;;;;;5075653;28;19927;-82
2023/09/14 14:52:27;;;;;;;;;;;20.70;99.90;;;;;;5075827;28;19920;-82
2023/09/14 14:54:52;;;;;;;;;;;20.60;99.90;;;;;;5093894;28;19920;-80
2023/09/14 14:57:19;;;;;;;;;;;20.50;99.90;;;;;;5075977;28;20295;-81
2023/09/14 14:59:44;;;;;;;;;;;20.50;99.90;;;;;;5075820;28;19931;-80
2023/09/14 15:02:10;;;;;;;;;;;20.50;99.90;;;;;;5075575;28;19920;-85
2023/09/14 15:04:36;;;;;;;;;;;20.60;99.90;;;;;;5075934;28;19920;-81
2023/09/14 15:07:02;;;;;;;;;;;20.60;99.90;;;;;;5076086;28;20381;-82
2023/09/14 15:09:28;;;;;;;;;;;20.40;99.90;;;;;;5058940;28;19967;-81
2023/09/14 15:11:54;;;;;;;;;;;20.40;99.90;;;;;;5058836;28;19920;-80
2023/09/14 15:14:20;;;;;;;;;;;20.40;99.90;;;;;;5075900;28;20261;-81
2023/09/14 15:16:46;;;;;;;;;;;20.50;99.90;;;;;;5075628;28;20418;-82
2023/09/14 15:19:12;;;;;;;;;;;20.60;99.90;;;;;;5059342;28;19924;-83
2023/09/14 15:21:37;;;;;;;;;;;20.70;99.90;;;;;;5075657;28;20398;-82
2023/09/14 15:24:03;;;;;;;;;;;20.70;99.90;;;;;;5075960;28;19920;-84
2023/09/14 15:26:28;;;;;;;;;;;20.70;99.90;;;;;;5075528;28;19920;-82
2023/09/14 15:28:56;;;;;;;;;;;20.60;99.90;;;;;;5075551;28;19924;-81
2023/09/14 15:31:23;;;;;;;;;;;20.70;99.90;;;;;;5075405;28;19920;-79
2023/09/14 15:33:48;;;;;;;;;;;20.80;99.90;;;;;;5094210;28;20011;-82
2023/09/14 15:36:14;;;;;;;;;;;20.90;99.90;;;;;;5075503;28;20024;-82
2023/09/14 15:38:41;;;;;;;;;;;20.90;99.90;;;;;;5075361;28;19999;-81
2023/09/14 15:41:11;;;;;;;;;;;20.90;99.90;;;;;;5059365;28;20334;-80
2023/09/14 15:43:38;;;;;;;;;;;20.80;99.90;;;;;;5093456;28;19927;-83
2023/09/14 15:46:04;;;;;;;;;;;20.70;99.90;;;;;;5096677;28;20331;-82
2023/09/14 15:48:29;;;;;;;;;;;20.70;99.90;;;;;;5079107;28;19963;-84
2023/09/14 15:50:55;;;;;;;;;;;20.70;99.90;;;;;;5078924;28;20291;-80
2023/09/14 15:53:23;;;;;;;;;;;20.70;99.90;;;;;;5079039;28;19931;-80
2023/09/14 15:55:49;;;;;;;;;;;20.80;99.90;;;;;;5078813;28;19981;-80
2023/09/14 15:58:15;;;;;;;;;;;20.80;99.90;;;;;;5078901;28;19924;-81
2023/09/14 16:00:40;;;;;;;;;;;20.70;99.90;;;;;;5078990;28;19993;-83
2023/09/14 16:03:06;;;;;;;;;;;20.70;99.90;;;;;;5079155;28;19927;-83
2023/09/14 16:05:31;;;;;;;;;;;20.70;99.90;;;;;;5078929;28;19927;-81
2023/09/14 16:08:06;;;;;;;;;;;20.70;99.90;;;;;;5079057;28;19920;-81
2023/09/14 16:10:33;;;;;;;;;;;20.70;99.90;;;;;;5078929;28;19920;-80
2023/09/14 16:12:58;;;;;;;;;;;20.70;99.90;;;;;;5097100;28;19927;-84
2023/09/14 16:15:24;;;;;;;;;;;20.50;99.90;;;;;;5096970;28;19924;-81
2023/09/14 16:17:50;;;;;;;;;;;20.40;99.90;;;;;;5096718;28;19931;-82
2023/09/14 16:20:15;;;;;;;;;;;20.30;99.90;;;;;;5096620;28;19927;-81
2023/09/14 16:22:41;;;;;;;;;;;20.20;99.90;;;;;;5078484;28;19920;-81
2023/09/14 16:25:06;;;;;;;;;;;20.20;99.90;;;;;;5061922;28;20014;-81
2023/09/14 16:27:32;;;;;;;;;;;20.10;99.90;;;;;;5062067;28;20333;-81
2023/09/14 16:29:58;;;;;;;;;;;20.00;99.90;;;;;;5078804;28;19920;-79
2023/09/14 16:32:24;;;;;;;;;;;19.90;99.90;;;;;;5078314;28;20355;-79
2023/09/14 16:34:50;;;;;;;;;;;19.90;99.90;;;;;;5078258;28;20015;-80
2023/09/14 16:37:16;;;;;;;;;;;19.80;99.90;;;;;;5078134;28;19963;-79
2023/09/14 16:39:42;;;;;;;;;;;19.80;99.90;;;;;;5078324;28;19978;-80
2023/09/14 16:42:08;;;;;;;;;;;19.80;99.90;;;;;;5061622;28;19920;-82
2023/09/14 16:44:33;;;;;;;;;;;19.70;99.90;;;;;;5061351;28;20303;-82
2023/09/14 16:46:59;;;;;;;;;;;19.70;99.90;;;;;;5077985;28;20306;-82
2023/09/14 16:49:27;;;;;;;;;;;19.60;99.90;;;;;;5077949;28;19924;-80
2023/09/14 16:51:53;;;;;;;;;;;19.50;99.90;;;;;;5078005;28;19920;-82
2023/09/14 16:54:19;;;;;;;;;;;19.50;99.90;;;;;;5078133;28;19920;-80
2023/09/14 16:56:45;;;;;;;;;;;19.50;99.90;;;;;;5077338;28;19977;-81
2023/09/14 16:59:11;;;;;;;;;;;19.50;99.90;;;;;;5093987;28;19920;-81
2023/09/14 17:01:37;;;;;;;;;;;19.40;99.90;;;;;;5077518;28;20291;-80
2023/09/14 17:04:04;;;;;;;;;;;19.40;99.90;;;;;;5078013;28;20284;-78
2023/09/14 17:06:30;;;;;;;;;;;19.30;99.90;;;;;;5077529;28;20016;-79
2023/09/14 17:08:56;;;;;;;;;;;19.20;99.90;;;;;;5077514;28;19970;-79
2023/09/14 17:11:21;;;;;;;;;;;19.20;99.90;;;;;;5077507;28;19969;-80
2023/09/14 17:13:47;;;;;;;;;;;19.10;99.90;;;;;;5077731;28;19969;-81
2023/09/14 17:16:12;;;;;;;;;;;19.00;99.90;;;;;;5077446;28;20386;-78
2023/09/14 17:18:38;;;;;;;;;;;18.90;99.90;;;;;;5077584;28;19926;-79